Time;durP1;ratioP1;P1;durP2;ratioP2;P2;SDS_P1;SDS_P2;PMS_P1;PMS_P2;Temp;Humidity;BMP_temperature;BMP_pressure;BME280_temperature;BME280_humidity;BME280_pressure;Samples;Min_cycle;Max_cycle;Signal;HPM_P1;HPM_P2
2023/06/07 00:03:25;;;;;;;1.55;0.80;;;;;;;;;;20586524;28;20242;-82
2023/06/07 00:13:26;;;;;;;1.40;0.70;;;;;;;;;;20550196;28;20291;-83
2023/06/07 00:23:28;;;;;;;1.30;0.70;;;;;;;;;;20549102;28;20289;-83
2023/06/07 00:33:30;;;;;;;1.80;0.65;;;;;;;;;;20536070;28;20237;-84
2023/06/07 00:43:32;;;;;;;2.53;0.60;;;;;;;;;;20571135;28;20239;-83
2023/06/07 00:53:35;;;;;;;2.05;0.80;;;22.40;86.50;;;;;;20575437;28;20252;-83
2023/06/07 01:03:38;;;;;;;1.00;0.68;;;;;;;;;;20605214;28;20228;-83
2023/06/07 01:13:39;;;;;;;1.23;0.80;;;;;;;;;;20578066;28;20779;-83
2023/06/07 01:23:41;;;;;;;1.42;0.82;;;22.00;88.70;;;;;;20544614;28;20233;-83
2023/06/07 01:33:43;;;;;;;1.73;0.60;;;21.10;87.90;;;;;;20543893;28;20233;-83
2023/06/07 01:43:48;;;;;;;0.95;0.63;;;;;;;;;;20560019;28;20770;-83
2023/06/07 01:53:50;;;;;;;1.92;0.70;;;;;;;;;;20542857;28;20299;-83
2023/06/07 02:03:53;;;;;;;1.20;0.77;;;;;;;;;;20557625;28;20219;-83
2023/06/07 02:13:59;;;;;;;1.20;0.70;;;;;;;;;;20557343;28;20638;-83
2023/06/07 02:24:01;;;;;;;1.40;0.80;;;;;;;;;;20572015;28;20247;-83
2023/06/07 02:34:03;;;;;;;1.50;0.90;;;;;;;;;;20537292;28;20236;-83
2023/06/07 02:44:05;;;;;;;1.10;0.80;;;;;;;;;;20575829;28;20244;-82
2023/06/07 02:54:08;;;;;;;2.30;0.67;;;;;;;;;;20554956;28;20288;-83
2023/06/07 03:04:11;;;;;;;3.07;1.00;;;;;;;;;;20553971;28;20290;-83
2023/06/07 03:14:14;;;;;;;1.17;0.80;;;;;;;;;;20538694;28;20647;-83
2023/06/07 03:24:19;;;;;;;1.53;0.80;;;;;;;;;;20562451;28;20235;-81
2023/06/07 03:34:21;;;;;;;1.73;0.87;;;;;;;;;;20544136;28;20235;-81
2023/06/07 03:44:24;;;;;;;1.40;0.83;;;;;;;;;;20551056;28;20259;-81
2023/06/07 03:54:26;;;;;;;1.20;0.80;;;;;;;;;;20565902;28;20235;-81
2023/06/07 04:04:29;;;;;;;1.30;0.90;;;;;;;;;;20549160;28;20227;-81
2023/06/07 04:14:33;;;;;;;4.33;1.17;;;;;;;;;;20562690;28;20575;-81
2023/06/07 04:24:35;;;;;;;3.97;1.03;;;;;;;;;;20571738;28;20242;-81
2023/06/07 04:34:41;;;;;;;5.03;1.33;;;;;;;;;;20565476;28;20228;-80
2023/06/07 04:44:45;;;;;;;2.30;1.30;;;;;;;;;;20580427;28;20232;-81
2023/06/07 04:54:53;;;;;;;1.90;1.00;;;;;;;;;;20578657;28;20262;-81
2023/06/07 05:04:57;;;;;;;3.03;1.30;;;;;;;;;;20578364;28;20236;-82
2023/06/07 05:14:59;;;;;;;2.53;0.90;;;;;;;;;;20575416;28;20231;-82
2023/06/07 05:25:01;;;;;;;1.90;1.00;;;;;;;;;;20560683;28;20240;-81
2023/06/07 05:35:03;;;;;;;1.97;1.00;;;;;;;;;;20567705;28;20273;-81
2023/06/07 05:45:06;;;;;;;1.60;1.10;;;21.00;97.00;;;;;;20545894;28;20240;-81
2023/06/07 05:55:08;;;;;;;5.73;1.20;;;;;;;;;;20576801;28;20661;-81
2023/06/07 06:05:11;;;;;;;1.67;1.30;;;;;;;;;;20591209;28;20285;-81
2023/06/07 06:15:12;;;;;;;2.90;1.03;;;;;;;;;;20589936;28;20227;-80
2023/06/07 06:25:15;;;;;;;2.13;1.07;;;;;;;;;;20572955;28;20232;-80
2023/06/07 06:35:16;;;;;;;1.97;1.13;;;;;;;;;;20573564;28;20220;-80
2023/06/07 06:45:18;;;;;;;1.50;1.00;;;;;;;;;;20572276;28;20318;-80
2023/06/07 06:55:20;;;;;;;1.73;1.00;;;;;;;;;;20570437;28;20311;-80
2023/06/07 07:05:22;;;;;;;1.80;0.90;;;;;;;;;;20586128;28;20229;-80
2023/06/07 07:15:23;;;;;;;1.20;0.80;;;;;;;;;;20560120;28;20232;-80
2023/06/07 07:25:25;;;;;;;2.03;1.00;;;;;;;;;;20589437;28;20223;-80
2023/06/07 07:35:27;;;;;;;1.83;0.80;;;;;;;;;;20609022;28;20231;-80
2023/06/07 07:45:28;;;;;;;1.13;0.93;;;;;;;;;;20569058;28;20239;-81
2023/06/07 07:55:30;;;;;;;1.27;0.87;;;;;;;;;;20591007;28;20236;-80
2023/06/07 08:05:32;;;;;;;1.67;1.07;;;;;;;;;;20572153;28;20261;-81
2023/06/07 08:15:34;;;;;;;1.87;1.00;;;;;;;;;;20591319;28;20262;-82
2023/06/07 08:25:37;;;;;;;1.93;1.00;;;;;;;;;;20550951;28;20667;-81
2023/06/07 08:35:38;;;;;;;1.80;0.90;;;;;;;;;;20566280;28;20249;-80
2023/06/07 08:45:40;;;;;;;4.77;1.30;;;;;;;;;;20583026;28;20275;-81
2023/06/07 08:55:43;;;;;;;1.50;1.00;;;;;;;;;;20580848;28;20239;-82
2023/06/07 09:05:46;;;;;;;1.40;1.08;;;;;;;;;;20571074;28;20244;-81
2023/06/07 09:15:49;;;;;;;1.17;0.98;;;;;;;;;;20597133;28;20283;-80
2023/06/07 09:25:54;;;;;;;2.08;1.27;;;24.60;98.00;;;;;;20595357;28;20285;-81
2023/06/07 09:36:02;;;;;;;1.98;1.27;;;25.20;98.50;;;;;;20559850;28;20224;-82
2023/06/07 09:46:04;;;;;;;3.47;1.38;;;;;;;;;;20560819;28;20262;-81
2023/06/07 09:56:16;;;;;;;1.55;1.20;;;25.80;91.20;;;;;;20553221;28;20712;-81
2023/06/07 10:06:18;;;;;;;2.03;1.55;;;;;;;;;;20580051;28;20233;-81
2023/06/07 10:16:21;;;;;;;4.45;1.40;;;27.60;97.20;;;;;;20561367;28;20233;-81
2023/06/07 10:26:29;;;;;;;2.55;1.50;;;;;;;;;;20555918;28;20225;-81
2023/06/07 10:36:31;;;;;;;3.03;1.30;;;;;;;;;;20589675;28;20228;-81
2023/06/07 10:46:33;;;;;;;2.13;1.27;;;;;;;;;;20592998;28;20269;-81
2023/06/07 10:56:36;;;;;;;3.10;1.42;;;25.30;97.80;;;;;;20602269;28;20295;-81
2023/06/07 11:07:18;;;;;;;1.90;1.27;;;25.60;96.50;;;;;;20606553;28;20630;-81
2023/06/07 11:17:53;;;;;;;1.58;1.00;;;26.70;88.90;;;;;;20582943;28;20289;-82
2023/06/07 11:27:55;;;;;;;1.25;0.85;;;;;;;;;;20587350;28;20226;-83
2023/06/07 11:38:03;;;;;;;2.05;0.80;;;27.10;92.60;;;;;;20555683;28;20286;-83
2023/06/07 11:48:06;;;;;;;1.83;1.05;;;;;;;;;;20584172;28;20670;-82
2023/06/07 11:58:08;;;;;;;1.55;0.88;;;;;;;;;;20571833;28;20714;-83
2023/06/07 12:08:12;;;;;;;1.60;1.00;;;;;;;;;;20564958;28;20577;-82
2023/06/07 12:18:18;;;;;;;3.75;0.90;;;;;;;;;;20562742;28;20263;-82
2023/06/07 12:28:25;;;;;;;1.00;0.70;;;;;;;;;;20592155;28;20286;-81
2023/06/07 12:38:28;;;;;;;0.95;0.60;;;;;;;;;;20550505;28;20222;-82
2023/06/07 12:48:29;;;;;;;1.67;1.08;;;;;;;;;;20596673;28;20242;-82
2023/06/07 12:58:31;;;;;;;0.85;0.60;;;;;;;;;;20597245;28;20247;-81
2023/06/07 13:08:33;;;;;;;0.80;0.50;;;;;;;;;;20595695;28;20234;-81
2023/06/07 13:18:38;;;;;;;0.77;0.52;;;;;;;;;;20593072;28;20282;-82
2023/06/07 13:28:43;;;;;;;2.45;0.70;;;;;;;;;;20576413;28;20286;-82
2023/06/07 13:38:45;;;;;;;1.23;0.82;;;;;;;;;;20576068;28;20218;-82
2023/06/07 13:48:48;;;;;;;0.85;0.40;;;;;;;;;;20591674;28;20637;-82
2023/06/07 13:58:49;;;;;;;0.93;0.50;;;;;;;;;;20582207;28;20243;-82
2023/06/07 14:08:51;;;;;;;0.73;0.60;;;;;;;;;;20541584;28;20239;-82
2023/06/07 14:18:53;;;;;;;1.77;0.50;;;;;;;;;;20572684;28;20711;-82
2023/06/07 14:28:55;;;;;;;1.02;0.60;;;;;;;;;;20571818;28;20232;-82
2023/06/07 14:38:56;;;;;;;1.05;0.65;;;;;;;;;;20588224;28;20281;-82
2023/06/07 14:48:58;;;;;;;1.13;0.60;;;;;;;;;;20571012;28;20247;-82
2023/06/07 14:59:00;;;;;;;0.70;0.60;;;;;;;;;;20569760;28;20250;-82
2023/06/07 15:09:02;;;;;;;0.68;0.57;;;;;;;;;;20585749;28;20243;-82
2023/06/07 15:19:03;;;;;;;0.60;0.50;;;;;;;;;;20585249;28;20210;-82
2023/06/07 15:29:05;;;;;;;1.05;0.70;;;;;;;;;;20589251;28;20235;-82
2023/06/07 15:39:07;;;;;;;0.50;0.50;;;29.80;75.50;;;;;;20583852;28;20232;-82
2023/06/07 15:49:09;;;;;;;0.82;0.52;;;;;;;;;;20550664;28;20248;-82
2023/06/07 15:59:11;;;;;;;1.02;0.50;;;;;;;;;;20549293;28;20786;-82
2023/06/07 16:09:13;;;;;;;0.52;0.50;;;;;;;;;;20582246;28;20497;-82
2023/06/07 16:19:15;;;;;;;0.68;0.52;;;;;;;;;;20582038;28;20214;-81
2023/06/07 16:29:17;;;;;;;1.50;0.75;;;;;;;;;;20562901;28;20244;-82
2023/06/07 16:39:18;;;;;;;0.93;0.52;;;;;;;;;;20563407;28;20806;-82
2023/06/07 16:49:21;;;;;;;2.47;0.70;;;;;;;;;;20562797;28;20248;-82
2023/06/07 16:59:24;;;;;;;0.90;0.55;;;;;;;;;;20578720;28;20242;-82
2023/06/07 17:09:26;;;;;;;1.63;0.77;;;;;;;;;;20574669;28;20309;-82
2023/06/07 17:19:28;;;;;;;1.48;0.50;;;;;;;;;;20560833;28;20620;-82
2023/06/07 17:29:29;;;;;;;0.88;0.60;;;;;;;;;;20544240;28;20702;-82
2023/06/07 17:39:31;;;;;;;1.30;0.70;;;;;;;;;;20562965;28;20598;-81
2023/06/07 17:49:33;;;;;;;1.33;0.70;;;;;;;;;;20587751;28;20242;-81
2023/06/07 17:59:34;;;;;;;1.15;0.60;;;;;;;;;;20590262;28;20251;-81
2023/06/07 18:09:37;;;;;;;0.93;0.68;;;;;;;;;;20571731;28;20235;-81
2023/06/07 18:19:40;;;;;;;2.10;0.65;;;;;;;;;;20589043;28;20227;-81
2023/06/07 18:29:42;;;;;;;1.42;0.80;;;;;;;;;;20570499;28;20238;-81
2023/06/07 18:39:44;;;;;;;0.93;0.65;;;;;;;;;;20555978;28;20224;-82
2023/06/07 18:49:47;;;;;;;2.65;0.60;;;;;;;;;;20608156;28;20247;-82
2023/06/07 18:59:48;;;;;;;1.05;0.70;;;;;;;;;;20553495;28;20229;-81
2023/06/07 19:09:50;;;;;;;1.73;0.95;;;;;;;;;;20569327;28;20808;-81
2023/06/07 19:19:52;;;;;;;1.30;0.90;;;;;;;;;;20595591;28;20707;-81
2023/06/07 19:29:54;;;;;;;1.23;0.90;;;;;;;;;;20579616;28;20240;-82
2023/06/07 19:39:57;;;;;;;2.35;1.35;;;;;;;;;;20563940;28;20781;-82
2023/06/07 19:49:59;;;;;;;1.48;1.08;;;;;;;;;;20550582;28;20742;-83
2023/06/07 20:00:01;;;;;;;5.38;1.25;;;;;;;;;;20583432;28;20648;-84
2023/06/07 20:10:04;;;;;;;3.92;1.20;;;;;;;;;;20579855;28;20271;-83
2023/06/07 20:20:07;;;;;;;2.00;1.20;;;;;;;;;;20587075;28;20770;-83
2023/06/07 20:30:09;;;;;;;3.55;1.50;;;;;;;;;;20561500;28;20605;-83
2023/06/07 20:40:11;;;;;;;2.00;1.20;;;;;;;;;;20560797;28;20291;-83
2023/06/07 20:50:12;;;;;;;3.97;1.23;;;;;;;;;;20546629;28;20303;-83
2023/06/07 21:00:15;;;;;;;2.50;1.50;;;;;;;;;;20580503;28;20718;-83
2023/06/07 21:10:17;;;;;;;1.98;1.30;;;;;;;;;;20556851;28;20277;-82
2023/06/07 21:20:18;;;;;;;1.60;1.10;;;;;;;;;;20562807;28;20302;-83
2023/06/07 21:30:20;;;;;;;1.88;1.30;;;;;;;;;;20578764;28;20582;-82
2023/06/07 21:40:22;;;;;;;2.20;1.02;;;25.20;99.90;;;;;;20586702;28;20251;-83
2023/06/07 21:50:24;;;;;;;1.65;1.20;;;;;;;;;;20545127;28;20816;-83
2023/06/07 22:00:26;;;;;;;2.03;1.45;;;;;;;;;;20573024;28;20595;-83
2023/06/07 22:10:28;;;;;;;2.80;1.50;;;;;;;;;;20594512;28;20233;-82
2023/06/07 22:20:36;;;;;;;1.83;1.15;;;;;;;;;;20590965;28;20234;-82
2023/06/07 22:30:39;;;;;;;1.90;1.52;;;;;;;;;;20589365;28;20290;-82
2023/06/07 22:40:41;;;;;;;3.60;1.50;;;24.50;99.90;;;;;;20557389;28;20239;-83
2023/06/07 22:50:44;;;;;;;2.58;1.63;;;;;;;;;;20571890;28;20317;-83
2023/06/07 23:00:45;;;;;;;1.98;1.60;;;;;;;;;;20571392;28;20297;-82
2023/06/07 23:10:49;;;;;;;2.65;1.40;;;;;;;;;;20571653;28;20272;-83
2023/06/07 23:20:51;;;;;;;1.63;1.27;;;;;;;;;;20537738;28;20842;-83
2023/06/07 23:30:52;;;;;;;1.95;1.52;;;;;;;;;;20560598;28;20241;-81
2023/06/07 23:40:54;;;;;;;2.33;1.50;;;;;;;;;;20568844;28;20637;-82
2023/06/07 23:50:56;;;;;;;3.05;1.50;;;;;;;;;;20552224;28;20233;-82
